createdAt,value
2023-03-06T00:04:27.004Z,8.95
2023-03-06T00:09:18.713Z,11.15
2023-03-06T00:14:10.367Z,8.52
2023-03-06T00:19:02.210Z,9.95
2023-03-06T00:23:53.867Z,9.82
2023-03-06T00:28:45.497Z,9.30
2023-03-06T00:33:37.166Z,10.00
2023-03-06T00:38:31.646Z,9.65
2023-03-06T00:43:23.328Z,9.55
2023-03-06T00:48:14.966Z,9.40
2023-03-06T00:53:06.652Z,9.63
2023-03-06T00:57:58.351Z,9.63
2023-03-06T01:02:53.854Z,10.07
2023-03-06T01:07:46.977Z,8.68
2023-03-06T01:12:38.694Z,9.95
2023-03-06T01:17:30.435Z,9.60
2023-03-06T01:22:22.098Z,8.93
2023-03-06T01:27:13.895Z,9.02
2023-03-06T01:32:08.627Z,8.25
2023-03-06T01:37:00.334Z,8.95
2023-03-06T01:41:52.030Z,8.88
2023-03-06T01:46:45.531Z,8.73
2023-03-06T01:51:49.051Z,9.43
2023-03-06T01:56:44.402Z,9.27
2023-03-06T02:01:39.642Z,8.57
2023-03-06T02:06:36.659Z,9.73
2023-03-06T02:11:28.385Z,9.77
2023-03-06T02:16:24.960Z,10.68
2023-03-06T02:21:26.942Z,9.60
2023-03-06T02:26:19.568Z,8.75
2023-03-06T02:31:22.703Z,8.80
2023-03-06T02:36:16.276Z,8.73
2023-03-06T02:41:08.802Z,8.55
2023-03-06T02:46:01.081Z,8.45
2023-03-06T02:50:52.795Z,7.28
2023-03-06T02:55:45.140Z,8.10
2023-03-06T03:00:36.987Z,7.60
2023-03-06T03:05:31.917Z,6.68
2023-03-06T03:10:30.865Z,7.60
2023-03-06T03:15:22.803Z,7.35
2023-03-06T03:20:18.572Z,7.68
2023-03-06T03:25:10.537Z,7.55
2023-03-06T03:30:02.280Z,7.38
2023-03-06T03:34:55.845Z,8.02
2023-03-06T03:39:48.715Z,8.05
2023-03-06T03:44:40.579Z,7.72
2023-03-06T03:49:32.392Z,9.00
2023-03-06T03:54:25.580Z,8.13
2023-03-06T03:59:18.794Z,9.52
2023-03-06T04:04:23.544Z,7.95
2023-03-06T04:09:15.816Z,7.65
2023-03-06T04:14:09.845Z,8.95
2023-03-06T04:19:02.147Z,8.70
2023-03-06T04:23:54.605Z,9.90
2023-03-06T04:28:46.450Z,9.55
2023-03-06T04:33:38.285Z,10.07
2023-03-06T04:38:31.073Z,10.55
2023-03-06T04:43:22.984Z,9.85
2023-03-06T04:48:17.072Z,10.63
2023-03-06T04:53:09.091Z,10.00
2023-03-06T04:58:00.825Z,10.60
2023-03-06T05:02:52.630Z,10.27
2023-03-06T05:07:44.776Z,10.55
2023-03-06T05:12:37.472Z,11.07
2023-03-06T05:17:29.108Z,12.57
2023-03-06T05:22:21.642Z,10.65
2023-03-06T05:27:15.807Z,10.90
2023-03-06T05:32:08.742Z,10.52
2023-03-06T05:37:01.916Z,9.65
2023-03-06T05:41:53.629Z,10.27
2023-03-06T05:46:45.334Z,12.10
2023-03-06T05:51:37.005Z,11.00
2023-03-06T05:56:28.738Z,10.40
2023-03-06T06:01:21.202Z,9.88
2023-03-06T06:06:15.114Z,9.60
2023-03-06T06:11:09.907Z,10.38
2023-03-06T06:16:07.626Z,9.65
2023-03-06T06:20:59.306Z,10.97
2023-03-06T06:25:51.662Z,9.88
2023-03-06T06:30:43.389Z,9.80
2023-03-06T06:35:37.053Z,9.55
2023-03-06T06:40:29.753Z,9.73
2023-03-06T06:45:21.389Z,9.60
2023-03-06T06:50:13.752Z,10.05
2023-03-06T06:55:05.878Z,10.38
2023-03-06T06:59:57.526Z,9.10
2023-03-06T07:05:03.049Z,9.20
2023-03-06T07:09:56.125Z,8.85
2023-03-06T07:14:48.557Z,8.30
2023-03-06T07:19:40.262Z,10.27
2023-03-06T07:24:31.982Z,9.07
2023-03-06T07:29:23.674Z,8.93
2023-03-06T07:34:15.833Z,9.30
2023-03-06T07:39:10.550Z,8.50
2023-03-06T07:44:02.442Z,9.23
2023-03-06T07:48:54.158Z,8.45
2023-03-06T07:53:46.401Z,8.30
2023-03-06T07:58:41.091Z,8.98
2023-03-06T08:03:33.869Z,9.35
2023-03-06T08:08:25.591Z,8.90
2023-03-06T08:13:17.282Z,8.65
2023-03-06T08:18:08.961Z,8.65
2023-03-06T08:23:00.642Z,9.10
2023-03-06T08:27:52.390Z,9.38
2023-03-06T08:32:44.793Z,8.45
2023-03-06T08:37:36.560Z,10.98
2023-03-06T08:42:28.268Z,9.10
2023-03-06T08:47:20.008Z,9.10
2023-03-06T08:52:11.782Z,9.05
2023-03-06T08:57:03.707Z,9.75
2023-03-06T09:01:55.555Z,9.70
2023-03-06T09:06:47.376Z,9.32
2023-03-06T09:11:39.266Z,10.68
2023-03-06T09:16:31.234Z,9.80
2023-03-06T09:21:23.999Z,9.10
2023-03-06T09:26:15.716Z,7.47
2023-03-06T09:31:15.939Z,7.82
2023-03-06T09:36:10.865Z,7.05
2023-03-06T09:41:23.185Z,7.50
2023-03-06T09:46:39.899Z,6.55
2023-03-06T09:51:51.830Z,7.30
2023-03-06T09:56:47.901Z,7.32
2023-03-06T10:01:42.714Z,7.07
2023-03-06T10:06:41.453Z,6.20
2023-03-06T10:11:39.308Z,5.82
2023-03-06T10:16:32.988Z,7.00
2023-03-06T10:21:52.779Z,6.50
2023-03-06T10:27:39.732Z,5.85
2023-03-06T10:32:48.241Z,6.00
2023-03-06T10:37:41.261Z,6.97
2023-03-06T10:42:32.899Z,6.30
2023-03-06T10:47:31.432Z,6.35
2023-03-06T10:57:19.816Z,12.77
2023-03-06T11:02:32.873Z,13.60
2023-03-06T11:07:30.476Z,13.60
2023-03-06T11:12:33.372Z,13.40
2023-03-06T11:17:29.969Z,16.50
2023-03-06T11:22:21.726Z,14.85
2023-03-06T11:27:26.970Z,17.13
2023-03-06T11:32:39.854Z,15.85
2023-03-06T11:37:48.980Z,16.75
2023-03-06T11:43:08.269Z,15.82
2023-03-06T11:48:14.934Z,17.08
2023-03-06T11:53:12.425Z,15.02
2023-03-06T11:58:35.307Z,14.52
2023-03-06T12:03:39.092Z,12.20
2023-03-06T12:08:54.243Z,16.23
2023-03-06T12:14:23.586Z,17.20
2023-03-06T12:19:46.591Z,15.30
2023-03-06T12:24:52.352Z,16.63
2023-03-06T12:30:11.693Z,16.27
2023-03-06T12:35:33.111Z,12.13
2023-03-06T12:40:35.844Z,9.63
2023-03-06T12:45:31.924Z,9.25
2023-03-06T12:50:33.390Z,7.78
2023-03-06T12:55:26.520Z,9.18
2023-03-06T13:00:37.271Z,9.80
2023-03-06T13:06:06.659Z,7.88
2023-03-06T13:11:55.373Z,12.63
2023-03-06T13:16:47.291Z,11.80
2023-03-06T13:21:42.030Z,12.63
2023-03-06T13:26:33.684Z,13.38
2023-03-06T13:31:34.440Z,13.25
2023-03-06T13:36:28.908Z,14.43
2023-03-06T13:41:20.776Z,15.38
2023-03-06T13:46:37.575Z,16.13
2023-03-06T13:51:34.860Z,13.10
2023-03-06T13:56:48.389Z,12.68
2023-03-06T14:02:10.177Z,7.22
2023-03-06T14:07:23.874Z,6.40
2023-03-06T14:12:30.383Z,5.88
2023-03-06T14:17:28.186Z,6.00
2023-03-06T14:22:23.497Z,5.93
2023-03-06T14:27:21.441Z,6.40
2023-03-06T14:32:17.613Z,5.78
2023-03-06T14:37:21.707Z,5.78
2023-03-06T14:42:18.492Z,5.50
2023-03-06T14:47:30.182Z,4.95
2023-03-06T14:52:21.942Z,5.22
2023-03-06T14:57:16.514Z,4.65
2023-03-06T15:02:11.398Z,4.38
2023-03-06T15:07:07.423Z,4.43
2023-03-06T15:12:27.378Z,4.65
2023-03-06T15:17:19.165Z,4.32
2023-03-06T15:22:31.741Z,4.70
2023-03-06T15:27:30.420Z,4.25
2023-03-06T15:32:24.831Z,4.00
2023-03-06T15:37:27.620Z,4.55
2023-03-06T15:42:25.059Z,4.68
2023-03-06T15:47:17.009Z,4.30
2023-03-06T15:52:09.550Z,4.82
2023-03-06T15:57:04.328Z,4.18
2023-03-06T16:01:56.014Z,3.85
2023-03-06T16:06:47.779Z,4.05
2023-03-06T16:11:44.960Z,4.55
2023-03-06T16:16:38.054Z,4.80
2023-03-06T16:21:29.791Z,4.35
2023-03-06T16:26:35.507Z,4.15
2023-03-06T16:31:27.391Z,3.80
2023-03-06T16:36:26.779Z,4.93
2023-03-06T16:41:19.863Z,4.22
2023-03-06T16:46:16.517Z,3.90
2023-03-06T16:51:09.630Z,3.80
2023-03-06T16:56:01.323Z,4.43
2023-03-06T17:00:53.030Z,4.50
2023-03-06T17:05:44.692Z,3.83
2023-03-06T17:10:40.997Z,4.65
2023-03-06T17:15:32.785Z,4.55
2023-03-06T17:20:24.561Z,5.82
2023-03-06T17:25:16.260Z,4.70
2023-03-06T17:30:08.540Z,4.90
2023-03-06T17:35:00.273Z,4.38
2023-03-06T17:39:52.105Z,3.95
2023-03-06T17:44:43.769Z,4.35
2023-03-06T17:49:35.447Z,4.68
2023-03-06T17:54:27.319Z,5.07
2023-03-06T17:59:19.341Z,4.05
2023-03-06T18:04:11.977Z,4.32
2023-03-06T18:09:05.059Z,4.30
2023-03-06T18:13:57.406Z,3.92
2023-03-06T18:18:52.225Z,4.25
2023-03-06T18:23:44.054Z,4.30
2023-03-06T18:28:35.883Z,4.45
2023-03-06T18:33:27.538Z,4.22
2023-03-06T18:38:19.214Z,4.75
2023-03-06T18:43:10.878Z,5.20
2023-03-06T18:48:05.005Z,6.40
2023-03-06T18:52:56.641Z,6.25
2023-03-06T18:57:48.274Z,7.43
2023-03-06T19:02:40.005Z,7.43
2023-03-06T19:07:31.723Z,7.43
2023-03-06T19:12:23.598Z,6.30
2023-03-06T19:17:15.317Z,5.97
2023-03-06T19:22:07.030Z,5.57
2023-03-06T19:26:58.744Z,5.38
2023-03-06T19:31:52.302Z,6.65
2023-03-06T19:36:44.666Z,6.28
2023-03-06T19:41:37.313Z,7.20
2023-03-06T19:46:29.153Z,7.20
2023-03-06T19:51:20.898Z,6.93
2023-03-06T19:56:16.759Z,7.82
2023-03-06T20:01:13.781Z,6.45
2023-03-06T20:06:09.128Z,7.03
2023-03-06T20:11:00.828Z,6.82
2023-03-06T20:15:52.560Z,7.13
2023-03-06T20:20:44.243Z,6.93
2023-03-06T20:25:37.372Z,7.60
2023-03-06T20:30:37.499Z,6.32
2023-03-06T20:35:29.659Z,5.95
2023-03-06T20:40:21.402Z,6.32
2023-03-06T20:45:13.192Z,6.57
2023-03-06T20:50:05.281Z,6.18
2023-03-06T20:54:57.140Z,5.93
2023-03-06T20:59:48.793Z,6.22
2023-03-06T21:04:41.131Z,5.90
2023-03-06T21:09:34.589Z,5.88
2023-03-06T21:14:26.511Z,6.40
2023-03-06T21:19:19.404Z,6.40
2023-03-06T21:24:11.271Z,6.72
2023-03-06T21:29:03.112Z,6.38
2023-03-06T21:33:54.792Z,6.82
2023-03-06T21:38:48.030Z,6.97
2023-03-06T21:43:40.529Z,7.80
2023-03-06T21:48:32.610Z,8.88
2023-03-06T21:53:24.287Z,9.18
2023-03-06T21:58:15.975Z,9.20
2023-03-06T22:03:07.675Z,8.32
2023-03-06T22:07:59.532Z,7.63
2023-03-06T22:12:51.281Z,7.35
2023-03-06T22:17:43.003Z,7.47
2023-03-06T22:22:34.743Z,7.70
2023-03-06T22:27:29.251Z,7.68
2023-03-06T22:32:21.096Z,8.05
2023-03-06T22:37:12.893Z,7.32
2023-03-06T22:42:04.917Z,8.05
2023-03-06T22:46:56.613Z,6.50
2023-03-06T22:51:48.350Z,7.22
2023-03-06T22:56:40.026Z,6.05
2023-03-06T23:01:34.108Z,5.95
2023-03-06T23:06:36.518Z,6.75
2023-03-06T23:11:29.598Z,6.80
2023-03-06T23:16:39.740Z,6.35
2023-03-06T23:21:50.142Z,6.40
2023-03-06T23:27:00.362Z,6.55
2023-03-06T23:31:52.043Z,6.28
2023-03-06T23:36:43.713Z,6.40
2023-03-06T23:41:35.385Z,5.78
2023-03-06T23:46:27.260Z,6.28
2023-03-06T23:51:21.479Z,6.15
2023-03-06T23:56:13.776Z,7.35
